createdAt,value
2019-03-23T00:00:11.976Z,49.01
2019-03-23T00:02:47.151Z,48.96
2019-03-23T00:05:15.038Z,48.82
2019-03-23T00:07:41.659Z,48.91
2019-03-23T00:10:09.248Z,48.89
2019-03-23T00:12:35.974Z,48.73
2019-03-23T00:15:02.705Z,48.76
2019-03-23T00:17:29.679Z,48.67
2019-03-23T00:22:41.792Z,49.05
2019-03-23T00:25:11.054Z,49.78
2019-03-23T00:27:37.893Z,49.17
2019-03-23T00:30:04.852Z,48.83
2019-03-23T00:32:36.520Z,48.35
2019-03-23T00:35:02.753Z,48.81
2019-03-23T00:37:29.664Z,48.60
2019-03-23T00:39:56.594Z,48.78
2019-03-23T00:42:23.178Z,49.13
2019-03-23T00:44:50.274Z,49.50
2019-03-23T00:47:17.218Z,49.30
2019-03-23T00:49:45.368Z,49.27
2019-03-23T00:52:12.673Z,49.04
2019-03-23T00:54:39.332Z,49.03
2019-03-23T00:57:06.034Z,48.96
2019-03-23T00:59:32.842Z,49.19
2019-03-23T01:01:59.427Z,49.65
2019-03-23T01:04:26.293Z,49.49
2019-03-23T01:06:53.044Z,49.65
2019-03-23T01:09:20.005Z,49.74
2019-03-23T01:11:46.614Z,50.08
2019-03-23T01:14:14.456Z,50.10
2019-03-23T01:16:41.329Z,49.76
2019-03-23T01:19:08.193Z,49.54
2019-03-23T01:21:35.134Z,49.72
2019-03-23T01:24:01.805Z,49.58
2019-03-23T01:26:28.709Z,49.37
2019-03-23T01:28:56.147Z,49.63
2019-03-23T01:31:22.787Z,50.42
2019-03-23T01:33:49.489Z,50.68
2019-03-23T01:36:16.695Z,50.96
2019-03-23T01:38:43.692Z,50.99
2019-03-23T01:41:10.359Z,51.05
2019-03-23T01:43:37.117Z,51.25
2019-03-23T01:46:03.992Z,51.24
2019-03-23T01:48:30.664Z,51.47
2019-03-23T01:50:57.602Z,51.54
2019-03-23T01:53:24.207Z,51.59
2019-03-23T01:55:59.164Z,50.75
2019-03-23T01:58:26.656Z,50.58
2019-03-23T02:00:53.440Z,50.53
2019-03-23T02:03:20.189Z,50.31
2019-03-23T02:05:47.746Z,50.82
2019-03-23T02:08:14.369Z,50.96
2019-03-23T02:10:42.053Z,50.65
2019-03-23T02:13:09.271Z,50.32
2019-03-23T02:15:39.011Z,50.07
2019-03-23T02:20:35.147Z,50.34
2019-03-23T02:23:02.004Z,50.37
2019-03-23T02:25:29.598Z,50.18
2019-03-23T02:27:56.384Z,50.32
2019-03-23T02:30:24.256Z,50.69
2019-03-23T02:32:52.068Z,50.63
2019-03-23T02:35:19.621Z,50.52
2019-03-23T02:37:46.596Z,50.69
2019-03-23T02:40:13.300Z,50.99
2019-03-23T02:42:40.589Z,51.57
2019-03-23T02:45:07.309Z,52.16
2019-03-23T02:47:34.885Z,52.33
2019-03-23T02:50:02.707Z,52.28
2019-03-23T02:52:29.630Z,52.29
2019-03-23T02:54:57.819Z,52.33
2019-03-23T02:57:29.106Z,52.43
2019-03-23T02:59:57.001Z,52.09
2019-03-23T03:02:23.736Z,52.47
2019-03-23T03:04:51.680Z,52.62
2019-03-23T03:07:18.327Z,52.67
2019-03-23T03:09:44.921Z,52.20
2019-03-23T03:15:03.363Z,52.72
2019-03-23T03:17:30.548Z,52.67
2019-03-23T03:19:58.208Z,52.04
2019-03-23T03:22:24.941Z,52.55
2019-03-23T03:24:51.662Z,52.95
2019-03-23T03:27:18.378Z,53.75
2019-03-23T03:29:45.313Z,54.11
2019-03-23T03:32:13.339Z,54.19
2019-03-23T03:34:40.085Z,53.86
2019-03-23T03:37:06.980Z,53.72
2019-03-23T03:39:33.652Z,53.55
2019-03-23T03:42:00.536Z,53.08
2019-03-23T03:44:28.121Z,53.18
2019-03-23T03:46:55.114Z,53.55
2019-03-23T03:49:21.713Z,53.68
2019-03-23T03:51:48.535Z,53.66
2019-03-23T03:54:15.562Z,53.58
2019-03-23T03:56:43.187Z,53.49
2019-03-23T03:59:09.850Z,53.40
2019-03-23T04:01:37.250Z,53.02
2019-03-23T04:04:04.047Z,53.09
2019-03-23T04:06:31.914Z,53.18
2019-03-23T04:08:58.589Z,52.95
2019-03-23T04:11:26.578Z,53.29
2019-03-23T04:13:53.492Z,53.75
2019-03-23T04:16:20.828Z,53.68
2019-03-23T04:18:47.470Z,54.01
2019-03-23T04:21:17.074Z,54.16
2019-03-23T04:23:43.668Z,54.45
2019-03-23T04:26:16.744Z,54.36
2019-03-23T04:28:47.770Z,54.75
2019-03-23T04:31:17.386Z,54.58
2019-03-23T04:33:48.426Z,54.31
2019-03-23T04:36:16.927Z,54.36
2019-03-23T04:38:54.763Z,54.79
2019-03-23T04:41:23.952Z,54.45
2019-03-23T04:43:51.827Z,54.76
2019-03-23T04:46:21.416Z,54.92
2019-03-23T04:48:54.571Z,55.02
2019-03-23T04:51:24.966Z,54.70
2019-03-23T04:53:55.421Z,54.13
2019-03-23T04:56:24.535Z,53.99
2019-03-23T04:58:52.194Z,54.52
2019-03-23T05:04:04.878Z,54.95
2019-03-23T05:06:32.658Z,55.45
2019-03-23T05:09:03.922Z,55.26
2019-03-23T05:14:20.201Z,56.36
2019-03-23T05:17:05.778Z,56.00
2019-03-23T05:19:35.330Z,55.52
2019-03-23T05:22:06.469Z,55.50
2019-03-23T05:24:38.476Z,56.19
2019-03-23T05:27:06.419Z,56.00
2019-03-23T05:29:50.490Z,55.32
2019-03-23T05:32:17.353Z,54.71
2019-03-23T05:34:45.161Z,54.81
2019-03-23T05:37:12.675Z,55.44
2019-03-23T05:39:45.328Z,55.49
2019-03-23T05:42:23.909Z,55.13
2019-03-23T05:48:02.570Z,54.28
2019-03-23T05:50:30.519Z,54.17
2019-03-23T05:52:58.351Z,53.98
2019-03-23T05:55:29.140Z,53.46
2019-03-23T05:57:56.513Z,52.78
2019-03-23T06:00:24.509Z,52.62
2019-03-23T06:02:53.431Z,51.87
2019-03-23T06:05:25.310Z,51.60
2019-03-23T06:07:55.998Z,51.60
2019-03-23T06:10:24.394Z,51.54
2019-03-23T06:12:55.441Z,51.59
2019-03-23T06:15:23.341Z,50.94
2019-03-23T06:17:53.386Z,50.60
2019-03-23T06:20:20.016Z,50.25
2019-03-23T06:22:46.645Z,49.13
2019-03-23T06:25:13.599Z,49.04
2019-03-23T06:27:40.204Z,49.32
2019-03-23T06:30:06.956Z,49.45
2019-03-23T06:32:33.819Z,48.82
2019-03-23T06:35:01.821Z,49.11
2019-03-23T06:37:28.578Z,48.25
2019-03-23T06:39:55.446Z,47.60
2019-03-23T06:42:22.639Z,46.91
2019-03-23T06:44:49.282Z,47.37
2019-03-23T06:47:17.063Z,47.14
2019-03-23T06:49:43.657Z,45.77
2019-03-23T06:52:10.266Z,44.39
2019-03-23T06:54:36.929Z,45.62
2019-03-23T06:57:03.531Z,45.46
2019-03-23T06:59:30.256Z,45.63
2019-03-23T07:01:56.911Z,44.91
2019-03-23T07:04:23.488Z,44.71
2019-03-23T07:06:50.068Z,45.20
2019-03-23T07:09:16.762Z,44.31
2019-03-23T07:11:43.960Z,44.00
2019-03-23T07:14:10.572Z,43.43
2019-03-23T07:16:37.570Z,43.59
2019-03-23T07:19:04.172Z,43.21
2019-03-23T07:21:30.767Z,41.75
2019-03-23T07:23:58.709Z,42.59
2019-03-23T07:26:25.327Z,42.26
2019-03-23T07:28:52.731Z,41.72
2019-03-23T07:31:19.722Z,41.88
2019-03-23T07:33:46.386Z,41.47
2019-03-23T07:36:13.477Z,41.28
2019-03-23T07:38:40.112Z,41.06
2019-03-23T07:41:06.713Z,41.29
2019-03-23T07:43:33.566Z,40.52
2019-03-23T07:46:01.000Z,40.63
2019-03-23T07:48:28.626Z,39.82
2019-03-23T07:50:55.325Z,39.74
2019-03-23T07:53:22.342Z,39.65
2019-03-23T07:55:49.204Z,39.95
2019-03-23T07:58:15.795Z,40.34
2019-03-23T08:00:43.008Z,39.75
2019-03-23T08:03:09.627Z,39.39
2019-03-23T08:05:36.507Z,39.08
2019-03-23T08:08:03.297Z,38.83
2019-03-23T08:10:29.963Z,38.70
2019-03-23T08:12:56.562Z,37.94
2019-03-23T08:15:23.329Z,38.51
2019-03-23T08:17:50.092Z,37.92
2019-03-23T08:20:17.730Z,37.57
2019-03-23T08:22:44.940Z,37.44
2019-03-23T08:25:13.844Z,36.99
2019-03-23T08:27:42.525Z,36.85
2019-03-23T08:30:13.090Z,36.53
2019-03-23T08:32:40.665Z,35.99
2019-03-23T08:35:11.716Z,35.14
2019-03-23T08:37:50.715Z,34.62
2019-03-23T08:40:22.557Z,35.40
2019-03-23T08:42:54.605Z,35.73
2019-03-23T08:45:22.340Z,34.56
2019-03-23T08:47:49.951Z,35.15
2019-03-23T08:50:23.287Z,33.98
2019-03-23T08:52:53.841Z,32.14
2019-03-23T08:55:25.234Z,33.44
2019-03-23T09:00:51.447Z,33.05
2019-03-23T09:06:07.371Z,32.02
2019-03-23T09:08:34.972Z,32.47
2019-03-23T09:11:01.617Z,31.36
2019-03-23T09:13:40.059Z,31.39
2019-03-23T09:15:58.430Z,31.40
2019-03-23T09:18:25.098Z,30.93
2019-03-23T09:20:52.079Z,31.50
2019-03-23T09:23:18.752Z,31.88
2019-03-23T09:25:45.873Z,31.37
2019-03-23T09:28:12.776Z,31.94
2019-03-23T09:30:39.557Z,30.56
2019-03-23T09:33:06.274Z,31.16
2019-03-23T09:35:32.914Z,30.65
2019-03-23T09:37:59.829Z,30.83
2019-03-23T09:40:26.434Z,30.35
2019-03-23T09:43:17.219Z,30.82
2019-03-23T09:45:26.243Z,30.26
2019-03-23T09:47:53.130Z,31.94
2019-03-23T09:50:22.317Z,31.36
2019-03-23T09:52:52.968Z,29.46
2019-03-23T09:55:37.250Z,29.03
2019-03-23T10:00:53.683Z,30.08
2019-03-23T10:03:23.649Z,31.42
2019-03-23T10:05:51.287Z,30.09
2019-03-23T10:08:19.159Z,30.80
2019-03-23T10:10:46.370Z,29.91
2019-03-23T10:13:13.426Z,30.15
2019-03-23T10:15:45.385Z,29.88
2019-03-23T10:18:13.495Z,29.19
2019-03-23T10:20:40.344Z,29.98
2019-03-23T10:23:07.007Z,29.29
2019-03-23T10:25:33.761Z,29.73
2019-03-23T10:28:00.366Z,29.33
2019-03-23T10:30:27.086Z,29.56
2019-03-23T10:32:54.271Z,29.34
2019-03-23T10:35:21.220Z,29.02
2019-03-23T10:37:48.538Z,29.08
2019-03-23T10:40:15.612Z,29.25
2019-03-23T10:42:43.353Z,27.93
2019-03-23T10:45:10.447Z,28.62
2019-03-23T10:47:37.463Z,28.10
2019-03-23T10:50:04.486Z,28.46
2019-03-23T10:52:31.387Z,27.86
2019-03-23T10:54:58.315Z,28.09
2019-03-23T10:57:25.200Z,28.51
2019-03-23T10:59:52.144Z,28.15
2019-03-23T11:02:18.927Z,28.30
2019-03-23T11:04:45.883Z,28.39
2019-03-23T11:07:12.848Z,27.45
2019-03-23T11:09:39.900Z,27.87
2019-03-23T11:12:06.893Z,27.70
2019-03-23T11:14:33.841Z,27.67
2019-03-23T11:17:00.758Z,26.73
2019-03-23T11:19:27.935Z,26.88
2019-03-23T11:21:54.844Z,27.14
2019-03-23T11:24:22.377Z,26.43
2019-03-23T11:26:49.331Z,26.70
2019-03-23T11:29:16.223Z,26.64
2019-03-23T11:31:43.296Z,27.71
2019-03-23T11:34:17.729Z,26.76
2019-03-23T11:36:39.541Z,26.89
2019-03-23T11:39:06.679Z,26.96
2019-03-23T11:41:33.314Z,27.24
2019-03-23T11:44:00.291Z,27.74
2019-03-23T11:46:27.243Z,26.21
2019-03-23T11:48:54.435Z,26.71
2019-03-23T11:51:21.457Z,26.29
2019-03-23T11:53:48.436Z,26.88
2019-03-23T11:56:15.161Z,26.09
2019-03-23T11:58:42.047Z,25.93
2019-03-23T12:01:08.996Z,26.34
2019-03-23T12:03:35.880Z,25.91
2019-03-23T12:06:03.013Z,26.11
2019-03-23T12:08:29.720Z,26.63
2019-03-23T12:11:02.796Z,25.45
2019-03-23T12:13:25.579Z,25.54
2019-03-23T12:15:52.556Z,25.37
2019-03-23T12:18:20.669Z,25.95
2019-03-23T12:20:49.652Z,25.05
2019-03-23T12:23:19.150Z,24.18
2019-03-23T12:25:54.737Z,26.34
2019-03-23T12:28:24.640Z,25.96
2019-03-23T12:30:53.747Z,26.90
2019-03-23T12:33:24.679Z,26.31
2019-03-23T12:35:53.527Z,26.78
2019-03-23T12:41:22.823Z,25.37
2019-03-23T12:43:53.243Z,24.42
2019-03-23T12:46:21.379Z,24.60
2019-03-23T12:48:49.279Z,25.76
2019-03-23T12:51:19.283Z,25.34
2019-03-23T12:53:47.754Z,24.94
2019-03-23T12:56:16.853Z,25.29
2019-03-23T12:58:47.181Z,25.10
2019-03-23T13:01:18.139Z,24.36
2019-03-23T13:03:45.523Z,24.70
2019-03-23T13:06:13.795Z,24.80
2019-03-23T13:08:52.085Z,24.97
2019-03-23T13:11:34.811Z,25.13
2019-03-23T13:16:42.466Z,24.81
2019-03-23T13:19:13.123Z,24.83
2019-03-23T13:21:41.067Z,24.65
2019-03-23T13:24:12.271Z,26.09
2019-03-23T13:26:40.375Z,25.88
2019-03-23T13:29:10.938Z,25.44
2019-03-23T13:31:48.761Z,24.80
2019-03-23T13:34:18.882Z,25.33
2019-03-23T13:36:46.050Z,25.60
2019-03-23T13:39:20.440Z,26.24
2019-03-23T13:41:51.260Z,25.51
2019-03-23T13:44:21.176Z,24.81
2019-03-23T13:46:59.529Z,25.73
2019-03-23T13:49:31.625Z,25.14
2019-03-23T13:52:04.977Z,24.00
2019-03-23T13:54:33.740Z,24.86
2019-03-23T13:57:00.655Z,24.36
2019-03-23T13:59:31.755Z,25.23
2019-03-23T14:01:59.628Z,25.33
2019-03-23T14:04:29.316Z,24.73
2019-03-23T14:07:00.075Z,24.99
2019-03-23T14:09:30.773Z,25.87
2019-03-23T14:11:58.454Z,24.98
2019-03-23T14:14:26.383Z,25.27
2019-03-23T14:17:00.608Z,25.47
2019-03-23T14:19:31.468Z,25.16
2019-03-23T14:22:03.871Z,25.38
2019-03-23T14:24:30.729Z,25.45
2019-03-23T14:26:58.627Z,26.23
2019-03-23T14:29:26.801Z,24.94
2019-03-23T14:31:57.782Z,25.31
2019-03-23T14:34:24.647Z,25.12
2019-03-23T14:36:57.304Z,25.87
2019-03-23T14:39:26.883Z,25.06
2019-03-23T14:41:54.346Z,25.76
2019-03-23T14:47:09.064Z,25.83
2019-03-23T14:49:36.975Z,25.27
2019-03-23T14:52:03.675Z,25.29
2019-03-23T14:54:32.493Z,25.26
2019-03-23T14:56:59.379Z,26.08
2019-03-23T14:59:27.785Z,25.93
2019-03-23T15:04:40.798Z,26.50
2019-03-23T15:07:07.747Z,25.95
2019-03-23T15:09:34.654Z,25.94
2019-03-23T15:12:01.521Z,26.05
2019-03-23T15:14:28.414Z,26.07
2019-03-23T15:16:55.294Z,26.00
2019-03-23T15:19:21.934Z,25.86
2019-03-23T15:21:48.911Z,26.00
2019-03-23T15:24:15.802Z,26.55
2019-03-23T15:26:42.382Z,26.87
2019-03-23T15:29:09.306Z,26.22
2019-03-23T15:31:36.254Z,26.08
2019-03-23T15:34:03.239Z,25.96
2019-03-23T15:36:30.115Z,25.75
2019-03-23T15:38:57.006Z,26.27
2019-03-23T15:41:24.880Z,26.68
2019-03-23T15:43:51.730Z,26.56
2019-03-23T15:46:18.605Z,26.76
2019-03-23T15:48:45.485Z,26.54
2019-03-23T15:51:12.516Z,27.07
2019-03-23T15:53:39.436Z,26.95
2019-03-23T15:56:06.179Z,27.02
2019-03-23T15:58:33.111Z,26.87
2019-03-23T16:00:59.751Z,27.09
2019-03-23T16:03:26.668Z,26.87
2019-03-23T16:05:53.548Z,26.83
2019-03-23T16:08:20.247Z,26.47
2019-03-23T16:10:47.111Z,26.93
2019-03-23T16:13:14.025Z,26.79
2019-03-23T16:15:40.899Z,26.81
2019-03-23T16:18:07.793Z,27.02
2019-03-23T16:20:34.741Z,27.18
2019-03-23T16:23:01.917Z,27.44
2019-03-23T16:25:29.580Z,27.39
2019-03-23T16:27:56.488Z,27.37
2019-03-23T16:30:23.955Z,27.44
2019-03-23T16:32:50.820Z,27.39
2019-03-23T16:35:18.224Z,27.93
2019-03-23T16:37:44.840Z,27.98
2019-03-23T16:40:11.725Z,28.10
2019-03-23T16:42:45.265Z,28.08
2019-03-23T16:45:06.964Z,28.53
2019-03-23T16:47:33.897Z,28.86
2019-03-23T16:50:00.883Z,29.20
2019-03-23T16:52:27.802Z,29.09
2019-03-23T16:54:54.412Z,29.06
2019-03-23T16:57:21.372Z,29.35
2019-03-23T16:59:49.352Z,29.22
2019-03-23T17:02:16.203Z,29.44
2019-03-23T17:04:43.428Z,29.90
2019-03-23T17:07:10.391Z,30.20
2019-03-23T17:09:37.280Z,30.23
2019-03-23T17:12:04.556Z,30.60
2019-03-23T17:14:31.472Z,30.74
2019-03-23T17:17:00.259Z,31.28
2019-03-23T17:19:27.224Z,31.54
2019-03-23T17:21:54.115Z,31.87
2019-03-23T17:24:20.714Z,32.30
2019-03-23T17:26:47.615Z,32.47
2019-03-23T17:29:15.232Z,32.86
2019-03-23T17:31:42.166Z,32.74
2019-03-23T17:34:09.041Z,33.35
2019-03-23T17:36:35.936Z,34.03
2019-03-23T17:39:02.857Z,34.26
2019-03-23T17:41:30.346Z,34.55
2019-03-23T17:43:56.954Z,34.69
2019-03-23T17:46:23.800Z,34.92
2019-03-23T17:48:50.738Z,35.11
2019-03-23T17:51:17.432Z,35.42
2019-03-23T17:53:44.314Z,35.32
2019-03-23T17:56:10.976Z,35.53
2019-03-23T17:58:37.592Z,35.92
2019-03-23T18:01:04.457Z,36.19
2019-03-23T18:03:31.095Z,36.41
2019-03-23T18:05:57.972Z,36.58
2019-03-23T18:08:24.602Z,36.63
2019-03-23T18:10:51.257Z,36.69
2019-03-23T18:13:18.129Z,36.72
2019-03-23T18:15:44.751Z,36.76
2019-03-23T18:18:11.784Z,36.75
2019-03-23T18:26:15.385Z,37.52
2019-03-23T18:34:07.287Z,38.55
2019-03-23T18:43:26.758Z,38.62
2019-03-23T18:44:30.765Z,38.83
2019-03-23T18:50:37.354Z,39.02
2019-03-23T18:52:07.499Z,39.26
2019-03-23T18:53:30.612Z,38.85
2019-03-23T18:54:45.621Z,39.67
2019-03-23T18:57:40.013Z,39.79
2019-03-23T19:00:13.900Z,40.07
2019-03-23T19:08:18.449Z,41.58
2019-03-23T19:13:45.867Z,42.03
2019-03-23T19:16:16.759Z,41.76
2019-03-23T19:18:49.294Z,41.62
2019-03-23T19:26:37.360Z,41.80
2019-03-23T19:29:08.272Z,41.55
2019-03-23T19:31:36.437Z,41.67
2019-03-23T19:34:06.249Z,42.03
2019-03-23T19:36:34.663Z,42.15
2019-03-23T19:39:02.445Z,42.31
2019-03-23T19:41:32.803Z,42.67
2019-03-23T19:44:04.783Z,42.64
2019-03-23T19:49:18.803Z,42.42
2019-03-23T19:51:48.467Z,42.48
2019-03-23T19:54:16.100Z,42.57
2019-03-23T19:56:43.624Z,43.01
2019-03-23T19:59:11.242Z,42.89
2019-03-23T20:01:42.074Z,43.13
2019-03-23T20:04:09.438Z,43.06
2019-03-23T20:06:37.979Z,43.38
2019-03-23T20:09:04.442Z,43.58
2019-03-23T20:11:31.361Z,44.00
2019-03-23T20:13:59.119Z,43.97
2019-03-23T20:16:25.792Z,43.88
2019-03-23T20:18:53.229Z,43.74
2019-03-23T20:21:24.344Z,43.74
2019-03-23T20:23:53.476Z,43.89
2019-03-23T20:26:25.354Z,44.65
2019-03-23T20:28:55.104Z,44.62
2019-03-23T20:31:22.706Z,44.92
2019-03-23T20:33:52.041Z,45.02
2019-03-23T20:36:21.647Z,45.20
2019-03-23T20:38:50.697Z,44.86
2019-03-23T20:41:27.609Z,44.79
2019-03-23T20:43:56.728Z,44.99
2019-03-23T20:46:24.567Z,45.15
2019-03-23T20:48:52.650Z,45.64
2019-03-23T20:51:27.910Z,45.87
2019-03-23T20:53:53.216Z,46.08
2019-03-23T20:56:24.948Z,46.35
2019-03-23T20:58:57.034Z,46.46
2019-03-23T21:01:28.167Z,46.73
2019-03-23T21:03:58.072Z,46.54
2019-03-23T21:06:24.682Z,46.52
2019-03-23T21:08:51.415Z,46.35
2019-03-23T21:11:18.734Z,46.16
2019-03-23T21:13:45.583Z,46.45
2019-03-23T21:16:12.237Z,46.73
2019-03-23T21:18:38.991Z,47.01
2019-03-23T21:21:06.354Z,46.39
2019-03-23T21:23:33.171Z,46.56
2019-03-23T21:26:00.256Z,46.65
2019-03-23T21:28:27.116Z,46.18
2019-03-23T21:30:53.754Z,46.51
2019-03-23T21:33:20.602Z,46.72
2019-03-23T21:35:47.233Z,46.60
2019-03-23T21:38:14.216Z,46.62
2019-03-23T21:40:40.929Z,46.88
2019-03-23T21:43:07.682Z,47.00
2019-03-23T21:45:34.259Z,47.52
2019-03-23T21:48:01.152Z,48.64
2019-03-23T21:50:27.777Z,48.59
2019-03-23T21:52:54.716Z,48.39
2019-03-23T21:55:21.402Z,48.26
2019-03-23T21:57:48.117Z,48.28
2019-03-23T22:00:14.732Z,48.24
2019-03-23T22:02:41.374Z,48.48
2019-03-23T22:05:08.022Z,48.72
2019-03-23T22:07:34.638Z,48.78
2019-03-23T22:10:02.020Z,49.32
2019-03-23T22:12:28.845Z,49.60
2019-03-23T22:14:55.556Z,49.48
2019-03-23T22:17:22.220Z,49.40
2019-03-23T22:25:07.417Z,49.71
2019-03-23T22:27:34.127Z,49.68
2019-03-23T22:30:00.925Z,49.87
2019-03-23T22:32:27.606Z,50.02
2019-03-23T22:34:54.260Z,49.92
2019-03-23T22:37:20.931Z,50.37
2019-03-23T22:39:47.553Z,50.20
2019-03-23T22:42:14.531Z,50.18
2019-03-23T22:44:51.821Z,50.28
2019-03-23T22:47:11.016Z,50.85
2019-03-23T22:49:37.639Z,50.57
2019-03-23T22:52:18.266Z,50.35
2019-03-23T22:54:44.966Z,50.22
2019-03-23T22:57:11.933Z,50.14
2019-03-23T22:59:38.840Z,50.41
2019-03-23T23:02:05.595Z,50.89
2019-03-23T23:07:23.175Z,51.96
2019-03-23T23:09:49.817Z,52.00
2019-03-23T23:12:16.424Z,52.05
2019-03-23T23:14:43.363Z,51.64
2019-03-23T23:17:10.206Z,51.49
2019-03-23T23:19:36.971Z,51.24
2019-03-23T23:22:04.758Z,51.03
2019-03-23T23:24:31.671Z,51.30
2019-03-23T23:26:58.648Z,51.27
2019-03-23T23:29:25.754Z,52.14
2019-03-23T23:31:52.360Z,52.40
2019-03-23T23:34:19.097Z,52.79
2019-03-23T23:36:45.757Z,53.08
2019-03-23T23:39:12.335Z,52.76
2019-03-23T23:41:39.076Z,52.33
2019-03-23T23:44:06.503Z,52.40
2019-03-23T23:46:33.136Z,52.27
2019-03-23T23:49:00.066Z,52.63
2019-03-23T23:51:26.883Z,52.72
2019-03-23T23:53:53.585Z,52.49
2019-03-23T23:56:20.447Z,52.01
2019-03-23T23:58:47.126Z,51.71
